createdAt,value
2022-11-23T00:00:45.251Z,14.93
2022-11-23T00:03:16.204Z,14.93
2022-11-23T00:05:43.636Z,18.23
2022-11-23T00:08:11.002Z,18.42
2022-11-23T00:10:38.566Z,13.93
2022-11-23T00:13:05.975Z,15.38
2022-11-23T00:15:33.415Z,16.27
2022-11-23T00:18:00.861Z,15.63
2022-11-23T00:20:28.333Z,15.80
2022-11-23T00:22:56.034Z,14.25
2022-11-23T00:25:23.470Z,14.93
2022-11-23T00:27:50.850Z,13.50
2022-11-23T00:30:18.465Z,13.90
2022-11-23T00:32:46.732Z,12.88
2022-11-23T00:35:14.227Z,12.02
2022-11-23T00:37:41.608Z,12.23
2022-11-23T00:40:09.420Z,12.38
2022-11-23T00:42:38.411Z,12.98
2022-11-23T00:45:06.083Z,12.63
2022-11-23T00:47:33.490Z,11.13
2022-11-23T00:50:00.940Z,13.15
2022-11-23T00:52:28.331Z,12.77
2022-11-23T00:54:55.778Z,14.02
2022-11-23T00:57:23.224Z,14.30
2022-11-23T00:59:50.735Z,16.15
2022-11-23T01:02:18.114Z,15.27
2022-11-23T01:04:45.595Z,15.90
2022-11-23T01:07:13.099Z,15.73
2022-11-23T01:09:40.711Z,17.55
2022-11-23T01:12:08.240Z,16.92
2022-11-23T01:14:35.808Z,17.27
2022-11-23T01:17:05.418Z,18.08
2022-11-23T01:19:35.574Z,18.20
2022-11-23T01:22:03.568Z,16.45
2022-11-23T01:24:31.028Z,17.77
2022-11-23T01:27:00.800Z,17.88
2022-11-23T01:29:29.072Z,20.73
2022-11-23T01:32:00.382Z,20.48
2022-11-23T01:34:27.804Z,18.92
2022-11-23T01:36:55.185Z,19.38
2022-11-23T01:39:22.691Z,25.10
2022-11-23T01:41:50.258Z,19.35
2022-11-23T01:44:23.951Z,17.63
2022-11-23T01:46:55.244Z,20.27
2022-11-23T01:49:23.360Z,18.67
2022-11-23T01:51:51.819Z,20.10
2022-11-23T01:54:25.565Z,19.73
2022-11-23T01:56:58.284Z,20.48
2022-11-23T01:59:26.611Z,20.02
2022-11-23T02:01:54.612Z,17.80
2022-11-23T02:04:27.974Z,17.73
2022-11-23T02:06:56.011Z,18.75
2022-11-23T02:09:23.517Z,19.20
2022-11-23T02:11:52.565Z,17.58
2022-11-23T02:14:23.381Z,18.73
2022-11-23T02:16:56.225Z,19.83
2022-11-23T02:19:26.846Z,19.77
2022-11-23T02:21:54.947Z,18.65
2022-11-23T02:24:26.283Z,17.75
2022-11-23T02:26:53.880Z,19.50
2022-11-23T02:29:21.418Z,17.83
2022-11-23T02:31:48.853Z,18.33
2022-11-23T02:34:17.636Z,18.10
2022-11-23T02:36:49.150Z,19.23
2022-11-23T02:39:18.278Z,19.55
2022-11-23T02:41:48.739Z,19.80
2022-11-23T02:44:22.265Z,19.95
2022-11-23T02:46:50.669Z,22.13
2022-11-23T02:49:18.072Z,19.92
2022-11-23T02:51:45.497Z,22.45
2022-11-23T02:54:13.206Z,18.88
2022-11-23T02:56:40.890Z,21.33
2022-11-23T02:59:08.925Z,21.70
2022-11-23T03:01:36.807Z,21.30
2022-11-23T03:04:06.875Z,22.00
2022-11-23T03:06:34.334Z,20.95
2022-11-23T03:09:01.749Z,22.10
2022-11-23T03:11:29.262Z,22.65
2022-11-23T03:13:56.784Z,21.77
2022-11-23T03:16:24.681Z,24.00
2022-11-23T03:18:52.442Z,22.70
2022-11-23T03:21:20.170Z,22.15
2022-11-23T03:23:47.688Z,21.38
2022-11-23T03:26:15.201Z,23.92
2022-11-23T03:28:51.441Z,21.23
2022-11-23T03:31:20.397Z,24.02
2022-11-23T03:33:48.910Z,23.42
2022-11-23T03:36:16.554Z,24.30
2022-11-23T03:38:47.706Z,22.73
2022-11-23T03:41:28.605Z,21.45
2022-11-23T03:43:56.912Z,24.27
2022-11-23T03:46:24.338Z,25.83
2022-11-23T03:48:51.970Z,24.98
2022-11-23T03:51:19.502Z,23.65
2022-11-23T03:53:47.008Z,24.48
2022-11-23T03:56:15.063Z,27.48
2022-11-23T03:58:46.367Z,25.48
2022-11-23T04:01:15.190Z,25.45
2022-11-23T04:03:45.455Z,24.88
2022-11-23T04:06:19.694Z,23.77
2022-11-23T04:08:49.955Z,24.08
2022-11-23T04:11:26.696Z,25.77
2022-11-23T04:13:54.267Z,24.65
2022-11-23T04:16:21.807Z,26.27
2022-11-23T04:18:50.196Z,26.05
2022-11-23T04:21:17.721Z,25.92
2022-11-23T04:23:45.639Z,28.25
2022-11-23T04:26:15.405Z,27.15
2022-11-23T04:28:46.126Z,30.35
2022-11-23T04:31:13.965Z,28.30
2022-11-23T04:33:51.804Z,27.73
2022-11-23T04:36:20.962Z,29.52
2022-11-23T04:38:48.520Z,25.25
2022-11-23T04:41:19.520Z,26.42
2022-11-23T04:43:48.690Z,26.83
2022-11-23T04:46:16.746Z,28.05
2022-11-23T04:48:46.188Z,31.20
2022-11-23T04:51:16.695Z,33.30
2022-11-23T04:53:44.293Z,27.13
2022-11-23T04:56:11.892Z,28.33
2022-11-23T04:58:41.230Z,30.00
2022-11-23T05:01:08.995Z,32.33
2022-11-23T05:03:45.929Z,25.95
2022-11-23T05:06:13.424Z,28.33
2022-11-23T05:08:43.117Z,33.20
2022-11-23T05:11:23.137Z,29.70
2022-11-23T05:13:51.440Z,29.65
2022-11-23T05:16:18.973Z,30.23
2022-11-23T05:18:46.436Z,29.13
2022-11-23T05:21:13.881Z,28.52
2022-11-23T05:23:42.066Z,26.63
2022-11-23T05:26:09.565Z,27.83
2022-11-23T05:28:40.604Z,34.83
2022-11-23T05:31:11.642Z,35.65
2022-11-23T05:33:39.430Z,33.53
2022-11-23T05:36:09.575Z,30.08
2022-11-23T05:38:39.380Z,30.35
2022-11-23T05:41:12.968Z,30.63
2022-11-23T05:43:43.293Z,29.35
2022-11-23T05:46:16.227Z,31.10
2022-11-23T05:48:45.304Z,31.08
2022-11-23T05:51:13.802Z,31.65
2022-11-23T05:53:44.965Z,36.00
2022-11-23T05:56:18.758Z,35.00
2022-11-23T05:59:01.503Z,30.45
2022-11-23T06:01:28.988Z,33.28
2022-11-23T06:04:00.871Z,33.17
2022-11-23T06:06:31.342Z,29.25
2022-11-23T06:08:59.031Z,30.00
2022-11-23T06:11:26.477Z,34.45
2022-11-23T06:13:57.803Z,31.85
2022-11-23T06:16:25.665Z,40.55
2022-11-23T06:19:02.620Z,33.53
2022-11-23T06:21:30.155Z,37.30
2022-11-23T06:23:57.633Z,34.38
2022-11-23T06:26:27.040Z,37.28
2022-11-23T06:28:55.282Z,34.90
2022-11-23T06:31:23.098Z,34.03
2022-11-23T06:33:50.633Z,33.42
2022-11-23T06:36:18.201Z,34.60
2022-11-23T06:38:49.433Z,32.83
2022-11-23T06:41:22.308Z,35.28
2022-11-23T06:43:50.929Z,33.70
2022-11-23T06:46:33.578Z,32.50
2022-11-23T06:49:01.100Z,32.25
2022-11-23T06:51:28.566Z,33.55
2022-11-23T06:53:56.049Z,33.03
2022-11-23T06:56:23.501Z,27.95
2022-11-23T06:58:51.022Z,30.42
2022-11-23T07:01:22.975Z,32.30
2022-11-23T07:04:10.740Z,31.05
2022-11-23T07:06:46.317Z,29.65
2022-11-23T07:09:24.985Z,30.88
2022-11-23T07:12:11.021Z,29.23
2022-11-23T07:14:38.753Z,29.95
2022-11-23T07:17:06.166Z,30.63
2022-11-23T07:19:36.181Z,36.40
2022-11-23T07:22:03.837Z,33.08
2022-11-23T07:24:37.981Z,37.30
2022-11-23T07:27:08.250Z,36.25
2022-11-23T07:29:36.085Z,34.05
2022-11-23T07:32:03.690Z,40.15
2022-11-23T07:34:31.149Z,32.10
2022-11-23T07:37:01.999Z,36.90
2022-11-23T07:39:55.852Z,34.80
2022-11-23T07:42:42.863Z,26.88
2022-11-23T07:45:09.371Z,30.55
2022-11-23T07:47:38.674Z,31.60
2022-11-23T07:50:07.387Z,30.80
2022-11-23T07:52:35.849Z,31.58
2022-11-23T07:55:03.537Z,28.60
2022-11-23T07:57:30.955Z,29.55
2022-11-23T07:59:58.453Z,29.55
2022-11-23T08:02:25.938Z,30.80
2022-11-23T08:04:53.397Z,31.80
2022-11-23T08:07:20.829Z,32.38
2022-11-23T08:09:48.391Z,32.58
2022-11-23T08:12:15.733Z,29.58
2022-11-23T08:14:43.364Z,32.25
2022-11-23T08:17:10.732Z,40.17
2022-11-23T08:19:38.180Z,42.70
2022-11-23T08:22:05.603Z,41.78
2022-11-23T08:24:33.203Z,40.08
2022-11-23T08:27:00.840Z,30.85
2022-11-23T08:29:28.897Z,33.38
2022-11-23T08:31:56.295Z,29.42
2022-11-23T08:34:23.774Z,28.05
2022-11-23T08:36:51.198Z,30.23
2022-11-23T08:39:19.452Z,28.80
2022-11-23T08:41:46.897Z,27.30
2022-11-23T08:44:14.385Z,30.48
2022-11-23T08:46:41.885Z,28.42
2022-11-23T08:49:09.363Z,29.00
2022-11-23T08:51:36.874Z,26.25
2022-11-23T08:54:04.382Z,27.60
2022-11-23T08:56:31.777Z,26.52
2022-11-23T08:58:59.238Z,27.55
2022-11-23T09:01:26.743Z,23.65
2022-11-23T09:03:54.975Z,23.85
2022-11-23T09:06:28.985Z,25.40
2022-11-23T09:08:57.121Z,23.83
2022-11-23T09:11:26.319Z,22.17
2022-11-23T09:13:53.902Z,26.98
2022-11-23T09:16:21.337Z,26.83
2022-11-23T09:18:49.964Z,27.02
2022-11-23T09:21:17.490Z,23.13
2022-11-23T09:23:44.946Z,23.02
2022-11-23T09:26:12.380Z,25.65
2022-11-23T09:28:44.471Z,24.25
2022-11-23T09:31:12.423Z,25.83
2022-11-23T09:33:39.862Z,28.20
2022-11-23T09:36:07.448Z,25.80
2022-11-23T09:41:37.509Z,28.45
2022-11-23T09:44:15.690Z,26.25
2022-11-23T09:46:52.054Z,29.52
2022-11-23T09:49:21.242Z,32.58
2022-11-23T09:51:50.504Z,31.48
2022-11-23T09:54:18.158Z,26.20
2022-11-23T09:56:46.660Z,25.50
2022-11-23T09:59:24.015Z,29.27
2022-11-23T10:01:51.612Z,26.15
2022-11-23T10:04:20.504Z,26.80
2022-11-23T10:06:53.200Z,29.65
2022-11-23T10:09:35.937Z,28.63
2022-11-23T10:12:21.210Z,26.33
2022-11-23T10:14:48.677Z,24.45
2022-11-23T10:17:30.938Z,24.08
2022-11-23T10:19:58.364Z,23.63
2022-11-23T10:22:35.864Z,25.15
2022-11-23T10:25:10.058Z,26.52
2022-11-23T10:27:37.487Z,24.43
2022-11-23T10:30:11.923Z,24.40
2022-11-23T10:32:43.129Z,24.35
2022-11-23T10:35:15.003Z,24.40
2022-11-23T10:37:42.658Z,28.48
2022-11-23T10:40:24.277Z,25.60
2022-11-23T10:42:56.854Z,27.48
2022-11-23T10:45:28.589Z,26.25
2022-11-23T10:48:00.269Z,26.05
2022-11-23T10:50:32.342Z,29.95
2022-11-23T10:53:19.087Z,25.20
2022-11-23T10:55:58.187Z,29.65
2022-11-23T10:58:28.407Z,27.27
2022-11-23T11:01:03.728Z,27.77
2022-11-23T11:03:33.250Z,28.20
2022-11-23T11:06:09.799Z,30.70
2022-11-23T11:08:49.504Z,28.05
2022-11-23T11:11:25.076Z,28.88
2022-11-23T11:13:52.698Z,31.10
2022-11-23T11:16:20.139Z,30.13
2022-11-23T11:18:47.661Z,32.83
2022-11-23T11:21:21.171Z,31.73
2022-11-23T11:23:53.804Z,35.95
2022-11-23T11:26:24.708Z,30.65
2022-11-23T11:28:56.718Z,26.73
2022-11-23T11:31:42.130Z,26.83
2022-11-23T11:34:15.502Z,23.73
2022-11-23T11:36:53.233Z,24.15
2022-11-23T11:39:33.474Z,25.77
2022-11-23T11:42:03.623Z,26.08
2022-11-23T11:44:33.334Z,25.02
2022-11-23T11:47:03.131Z,24.80
2022-11-23T11:49:30.573Z,26.05
2022-11-23T11:52:09.893Z,22.92
2022-11-23T11:54:49.947Z,26.92
2022-11-23T11:57:20.285Z,31.15
2022-11-23T11:59:52.991Z,27.00
2022-11-23T12:02:20.643Z,27.42
2022-11-23T12:04:51.105Z,24.58
2022-11-23T12:07:37.360Z,27.88
2022-11-23T12:10:12.948Z,27.92
2022-11-23T12:12:40.853Z,26.77
2022-11-23T12:15:47.256Z,27.05
2022-11-23T12:18:11.821Z,26.90
2022-11-23T12:20:44.202Z,28.83
2022-11-23T12:23:20.619Z,26.38
2022-11-23T12:26:03.551Z,28.77
2022-11-23T12:28:33.949Z,27.80
2022-11-23T12:31:07.470Z,29.17
2022-11-23T12:33:53.731Z,30.73
2022-11-23T12:36:27.042Z,32.90
2022-11-23T12:39:03.716Z,33.08
2022-11-23T12:41:31.086Z,32.85
2022-11-23T12:44:14.001Z,27.63
2022-11-23T12:46:59.981Z,27.33
2022-11-23T12:49:46.546Z,34.08
2022-11-23T12:52:13.970Z,29.75
2022-11-23T12:55:01.690Z,27.65
2022-11-23T12:57:32.466Z,26.00
2022-11-23T13:00:18.453Z,29.38
2022-11-23T13:02:58.267Z,22.88
2022-11-23T13:05:35.061Z,25.27
2022-11-23T13:08:21.347Z,26.10
2022-11-23T13:10:48.960Z,26.02
2022-11-23T13:13:25.724Z,26.17
2022-11-23T13:16:12.131Z,27.70
2022-11-23T13:18:53.797Z,26.50
2022-11-23T13:21:38.340Z,34.00
2022-11-23T13:24:06.197Z,25.42
2022-11-23T13:26:33.630Z,26.63
2022-11-23T13:29:01.550Z,28.38
2022-11-23T13:31:31.308Z,25.58
2022-11-23T13:34:00.638Z,26.50
2022-11-23T13:36:49.456Z,25.27
2022-11-23T13:39:34.423Z,25.48
2022-11-23T13:42:02.080Z,28.52
2022-11-23T13:44:31.628Z,30.35
2022-11-23T13:47:04.431Z,31.88
2022-11-23T13:49:35.153Z,33.00
2022-11-23T13:52:21.308Z,30.95
2022-11-23T13:55:08.827Z,29.00
2022-11-23T13:57:41.981Z,29.45
2022-11-23T14:00:35.931Z,31.48
2022-11-23T14:03:21.852Z,31.38
2022-11-23T14:05:49.291Z,32.22
2022-11-23T14:08:18.240Z,29.25
2022-11-23T14:10:46.024Z,34.83
2022-11-23T14:13:17.039Z,34.55
2022-11-23T14:15:46.891Z,34.47
2022-11-23T14:18:27.789Z,30.13
2022-11-23T14:21:01.948Z,32.67
2022-11-23T14:23:38.554Z,33.37
2022-11-23T14:26:09.014Z,32.05
2022-11-23T14:28:55.340Z,33.17
2022-11-23T14:31:39.370Z,33.78
2022-11-23T14:34:09.947Z,29.58
2022-11-23T14:36:44.284Z,29.33
2022-11-23T14:39:30.354Z,31.48
2022-11-23T14:42:00.844Z,30.55
2022-11-23T14:44:34.138Z,28.52
2022-11-23T14:47:06.879Z,33.58
2022-11-23T14:49:34.516Z,31.00
2022-11-23T14:52:02.530Z,32.38
2022-11-23T14:54:30.749Z,33.58
2022-11-23T14:57:01.055Z,30.52
2022-11-23T14:59:35.502Z,38.40
2022-11-23T15:02:05.249Z,29.30
2022-11-23T15:04:35.513Z,35.47
2022-11-23T15:07:09.180Z,31.58
2022-11-23T15:09:36.647Z,32.85
2022-11-23T15:12:27.372Z,34.83
2022-11-23T15:14:57.432Z,32.17
2022-11-23T15:17:25.226Z,29.95
2022-11-23T15:19:59.818Z,33.95
2022-11-23T15:22:28.343Z,33.35
2022-11-23T15:24:56.127Z,35.22
2022-11-23T15:27:28.392Z,28.92
2022-11-23T15:30:00.399Z,27.90
2022-11-23T15:32:32.058Z,26.75
2022-11-23T15:35:13.022Z,27.67
2022-11-23T15:37:50.829Z,27.58
2022-11-23T15:40:20.301Z,32.83
2022-11-23T15:42:49.703Z,36.15
2022-11-23T15:45:36.059Z,31.05
2022-11-23T15:48:10.586Z,40.05
2022-11-23T15:50:54.449Z,41.25
2022-11-23T15:53:22.891Z,40.78
2022-11-23T15:55:50.402Z,43.72
2022-11-23T15:58:18.978Z,38.75
2022-11-23T16:00:51.132Z,35.78
2022-11-23T16:03:27.958Z,36.70
2022-11-23T16:06:13.898Z,38.28
2022-11-23T16:08:41.739Z,33.50
2022-11-23T16:11:22.829Z,34.45
2022-11-23T16:13:50.559Z,37.30
2022-11-23T16:16:23.246Z,34.85
2022-11-23T16:18:58.861Z,35.83
2022-11-23T16:21:26.425Z,38.15
2022-11-23T16:23:57.354Z,38.42
2022-11-23T16:26:31.826Z,35.58
2022-11-23T16:28:59.745Z,40.22
2022-11-23T16:31:29.310Z,33.92
2022-11-23T16:33:56.870Z,38.65
2022-11-23T16:36:27.362Z,39.92
2022-11-23T16:38:59.620Z,41.13
2022-11-23T16:43:57.551Z,38.95
2022-11-23T16:46:25.091Z,36.63
2022-11-23T16:48:55.575Z,39.05
2022-11-23T16:51:23.065Z,37.92
2022-11-23T16:54:12.527Z,36.33
2022-11-23T16:56:38.918Z,36.28
2022-11-23T16:59:06.572Z,35.85
2022-11-23T17:01:35.809Z,42.15
2022-11-23T17:04:03.417Z,38.90
2022-11-23T17:06:31.117Z,39.13
2022-11-23T17:09:04.658Z,41.75
2022-11-23T17:11:36.303Z,37.10
2022-11-23T17:14:04.935Z,42.22
2022-11-23T17:16:34.377Z,37.72
2022-11-23T17:19:02.021Z,39.25
2022-11-23T17:21:29.736Z,36.20
2022-11-23T17:23:57.302Z,40.05
2022-11-23T17:26:33.965Z,40.75
2022-11-23T17:29:03.215Z,42.80
2022-11-23T17:31:30.676Z,43.75
2022-11-23T17:33:58.328Z,38.17
2022-11-23T17:36:26.727Z,40.83
2022-11-23T17:38:54.730Z,37.53
2022-11-23T17:41:22.485Z,40.65
2022-11-23T17:43:50.091Z,38.60
2022-11-23T17:46:23.845Z,39.42
2022-11-23T17:48:55.049Z,37.28
2022-11-23T17:51:22.562Z,43.30
2022-11-23T17:53:50.040Z,39.83
2022-11-23T17:56:18.782Z,42.67
2022-11-23T17:58:46.834Z,40.03
2022-11-23T18:01:15.706Z,43.45
2022-11-23T18:03:43.721Z,41.35
2022-11-23T18:06:15.316Z,41.42
2022-11-23T18:08:43.711Z,39.40
2022-11-23T18:11:11.182Z,39.65
2022-11-23T18:13:39.141Z,45.35
2022-11-23T18:16:07.122Z,40.45
2022-11-23T18:18:34.671Z,43.80
2022-11-23T18:21:02.453Z,42.17
2022-11-23T18:23:30.135Z,43.40
2022-11-23T18:26:03.717Z,40.70
2022-11-23T18:28:31.343Z,57.83
2022-11-23T18:30:58.856Z,49.35
2022-11-23T18:33:26.547Z,47.38
2022-11-23T18:35:53.930Z,52.13
2022-11-23T18:38:21.386Z,50.80
2022-11-23T18:40:48.845Z,50.67
2022-11-23T18:43:16.401Z,52.30
2022-11-23T18:45:44.133Z,54.47
2022-11-23T18:48:11.674Z,51.60
2022-11-23T18:50:39.292Z,52.40
2022-11-23T18:53:06.846Z,54.40
2022-11-23T18:55:34.924Z,53.08
2022-11-23T18:58:02.352Z,51.75
2022-11-23T19:00:29.785Z,47.50
2022-11-23T19:03:02.409Z,54.97
2022-11-23T19:05:36.329Z,56.47
2022-11-23T19:08:05.548Z,53.63
2022-11-23T19:10:37.151Z,47.08
2022-11-23T19:13:06.018Z,52.40
2022-11-23T19:15:34.367Z,52.65
2022-11-23T19:18:01.968Z,55.67
2022-11-23T19:20:30.153Z,57.60
2022-11-23T19:22:57.721Z,55.17
2022-11-23T19:25:25.384Z,56.85
2022-11-23T19:27:53.175Z,50.72
2022-11-23T19:30:20.660Z,56.28
2022-11-23T19:32:48.213Z,53.75
2022-11-23T19:35:15.842Z,56.85
2022-11-23T19:37:46.362Z,54.03
2022-11-23T19:40:13.982Z,56.60
2022-11-23T19:42:42.678Z,55.13
2022-11-23T19:45:10.464Z,53.92
2022-11-23T19:47:38.087Z,55.55
2022-11-23T19:50:05.799Z,55.13
2022-11-23T19:52:55.874Z,53.65
2022-11-23T19:55:20.688Z,52.78
2022-11-23T19:57:48.128Z,59.13
2022-11-23T20:00:15.908Z,52.50
2022-11-23T20:02:43.334Z,51.70
2022-11-23T20:05:12.914Z,55.90
2022-11-23T20:07:40.434Z,48.55
2022-11-23T20:10:08.206Z,54.63
2022-11-23T20:12:35.638Z,57.03
2022-11-23T20:15:03.684Z,51.40
2022-11-23T20:17:31.136Z,55.38
2022-11-23T20:19:58.568Z,55.20
2022-11-23T20:22:25.985Z,55.50
2022-11-23T20:24:53.367Z,55.00
2022-11-23T20:27:21.473Z,56.45
2022-11-23T20:29:49.191Z,58.97
2022-11-23T20:32:16.652Z,50.42
2022-11-23T20:34:44.158Z,53.90
2022-11-23T20:37:14.572Z,49.85
2022-11-23T20:39:42.017Z,52.53
2022-11-23T20:42:09.392Z,46.25
2022-11-23T20:44:37.544Z,57.85
2022-11-23T20:47:05.163Z,52.00
2022-11-23T20:49:32.955Z,49.17
2022-11-23T20:52:00.718Z,52.08
2022-11-23T20:54:28.341Z,48.97
2022-11-23T20:56:58.205Z,53.97
2022-11-23T20:59:25.680Z,52.70
2022-11-23T21:01:53.174Z,48.65
2022-11-23T21:04:20.670Z,50.92
2022-11-23T21:06:48.222Z,56.75
2022-11-23T21:09:17.096Z,57.90
2022-11-23T21:12:03.118Z,54.95
2022-11-23T21:14:32.948Z,51.50
2022-11-23T21:17:01.150Z,52.08
2022-11-23T21:19:35.616Z,55.95
2022-11-23T21:22:05.167Z,52.95
2022-11-23T21:24:35.099Z,53.00
2022-11-23T21:27:03.856Z,52.15
2022-11-23T21:29:31.657Z,53.22
2022-11-23T21:31:59.092Z,51.30
2022-11-23T21:34:27.483Z,57.08
2022-11-23T21:36:55.623Z,56.38
2022-11-23T21:39:23.781Z,54.13
2022-11-23T21:41:52.341Z,54.10
2022-11-23T21:44:19.941Z,56.30
2022-11-23T21:46:47.500Z,55.13
2022-11-23T21:49:15.009Z,52.03
2022-11-23T21:51:43.746Z,55.88
2022-11-23T21:54:14.290Z,53.63
2022-11-23T21:56:42.797Z,60.53
2022-11-23T21:59:10.413Z,61.47
2022-11-23T22:01:38.542Z,60.22
2022-11-23T22:04:08.956Z,63.60
2022-11-23T22:06:37.091Z,59.08
2022-11-23T22:09:05.136Z,59.30
2022-11-23T22:11:34.083Z,69.38
2022-11-23T22:14:02.539Z,77.60
2022-11-23T22:16:34.337Z,75.95
2022-11-23T22:19:02.037Z,73.80
2022-11-23T22:21:32.508Z,79.15
2022-11-23T22:24:00.363Z,78.85
2022-11-23T22:26:28.088Z,73.03
2022-11-23T22:28:56.104Z,78.65
2022-11-23T22:31:24.872Z,84.43
2022-11-23T22:33:55.167Z,81.70
2022-11-23T22:36:23.645Z,76.93
2022-11-23T22:39:01.028Z,84.40
2022-11-23T22:41:29.892Z,77.97
2022-11-23T22:43:57.423Z,69.20
2022-11-23T22:46:25.815Z,72.45
2022-11-23T22:48:53.706Z,65.57
2022-11-23T22:51:22.605Z,66.20
2022-11-23T22:53:54.071Z,70.35
2022-11-23T22:56:21.632Z,61.63
2022-11-23T22:58:49.598Z,65.28
2022-11-23T23:01:18.264Z,68.90
2022-11-23T23:03:46.070Z,59.50
2022-11-23T23:06:18.074Z,63.97
2022-11-23T23:08:49.064Z,68.75
2022-11-23T23:11:16.600Z,63.25
2022-11-23T23:13:44.058Z,66.60
2022-11-23T23:16:12.845Z,67.55
2022-11-23T23:18:41.347Z,63.92
2022-11-23T23:21:14.397Z,63.17
2022-11-23T23:23:43.847Z,61.35
2022-11-23T23:26:11.886Z,67.10
2022-11-23T23:28:39.583Z,66.57
2022-11-23T23:31:08.245Z,65.97
2022-11-23T23:33:35.859Z,71.07
2022-11-23T23:36:04.718Z,73.28
2022-11-23T23:38:32.765Z,71.82
2022-11-23T23:41:00.570Z,70.97
2022-11-23T23:43:28.897Z,77.53
2022-11-23T23:46:00.114Z,81.35
2022-11-23T23:48:31.522Z,79.10
2022-11-23T23:50:59.645Z,75.20
2022-11-23T23:53:26.986Z,75.22
2022-11-23T23:56:00.300Z,71.53
2022-11-23T23:58:27.897Z,75.65
